Time;durP1;ratioP1;P1;durP2;ratioP2;P2;SDS_P1;SDS_P2;PMS_P1;PMS_P2;Temp;Humidity;BMP_temperature;BMP_pressure;BME280_temperature;BME280_humidity;BME280_pressure;Samples;Min_cycle;Max_cycle;Signal;HPM_P1;HPM_P2
2023/03/29 00:02:11;;;;;;;7.43;2.88;;;;;;;;;;5071660;28;20548;-56
2023/03/29 00:04:38;;;;;;;7.55;3.00;;;;;;;;;;5072183;28;20042;-56
2023/03/29 00:07:04;;;;;;;7.60;3.22;;;;;;;;;;5073299;28;20415;-56
2023/03/29 00:09:31;;;;;;;9.68;3.50;;;4.90;99.90;;;;;;5073156;28;20682;-57
2023/03/29 00:11:58;;;;;;;7.95;3.72;;;4.80;99.90;;;;;;5072717;28;20489;-56
2023/03/29 00:14:25;;;;;;;6.53;3.17;;;;;;;;;;5072840;28;20163;-56
2023/03/29 00:16:51;;;;;;;7.07;2.92;;;;;;;;;;5073022;28;20591;-57
2023/03/29 00:19:18;;;;;;;10.65;4.03;;;;;;;;;;5073839;28;20378;-56
2023/03/29 00:21:44;;;;;;;6.45;2.90;;;;;;;;;;5072296;28;20040;-56
2023/03/29 00:24:09;;;;;;;7.22;2.95;;;5.00;99.90;;;;;;5072804;28;20036;-56
2023/03/29 00:26:36;;;;;;;8.80;3.20;;;;;;;;;;5072935;28;20044;-57
2023/03/29 00:29:02;;;;;;;5.47;2.58;;;;;;;;;;5073545;28;20047;-56
2023/03/29 00:31:28;;;;;;;6.18;2.35;;;;;;;;;;5071866;28;20040;-56
2023/03/29 00:33:54;;;;;;;6.68;3.40;;;;;;;;;;5071544;28;20051;-56
2023/03/29 00:36:22;;;;;;;6.15;2.60;;;;;;;;;;5072253;28;20040;-56
2023/03/29 00:38:48;;;;;;;6.43;2.78;;;;;;;;;;5071833;28;20067;-56
2023/03/29 00:41:14;;;;;;;5.47;2.65;;;;;;;;;;5072750;28;20040;-56
2023/03/29 00:43:55;;;;;;;6.40;2.85;;;5.00;99.90;;;;;;5071417;28;20044;-56
2023/03/29 00:46:21;;;;;;;5.55;2.80;;;;;;;;;;5073207;28;20630;-56
2023/03/29 00:48:47;;;;;;;8.23;3.03;;;;;;;;;;5071860;28;20108;-56
2023/03/29 00:51:15;;;;;;;6.05;3.10;;;4.80;99.90;;;;;;5071364;28;20371;-57
2023/03/29 00:53:57;;;;;;;5.80;3.10;;;4.80;99.90;;;;;;5070357;28;20044;-56
2023/03/29 00:56:35;;;;;;;13.38;4.28;;;4.90;99.90;;;;;;5072358;28;20056;-56
2023/03/29 00:59:18;;;;;;;7.90;2.90;;;4.90;99.90;;;;;;5071551;28;20524;-56
2023/03/29 01:02:02;;;;;;;7.43;3.53;;;4.90;99.90;;;;;;5072418;28;20032;-57
2023/03/29 01:04:44;;;;;;;8.52;3.13;;;5.00;99.90;;;;;;5071146;28;20562;-56
2023/03/29 01:07:12;;;;;;;6.03;2.58;;;;;;;;;;5071315;28;20348;-57
2023/03/29 01:09:42;;;;;;;8.50;2.60;;;5.10;99.90;;;;;;5071745;28;20160;-56
2023/03/29 01:12:15;;;;;;;8.07;3.13;;;5.00;99.90;;;;;;5072704;28;20058;-57
2023/03/29 01:14:53;;;;;;;6.88;3.30;;;5.00;99.90;;;;;;5071643;28;20040;-56
2023/03/29 01:17:24;;;;;;;9.02;3.10;;;;;;;;;;5071394;28;20051;-57
2023/03/29 01:19:58;;;;;;;9.73;3.20;;;4.70;99.90;;;;;;5071305;28;20056;-57
2023/03/29 01:22:53;;;;;;;6.18;2.83;;;4.90;99.90;;;;;;5071690;28;20540;-56
2023/03/29 01:25:25;;;;;;;6.28;2.97;;;5.00;99.90;;;;;;5070272;28;20413;-56
2023/03/29 01:28:11;;;;;;;6.25;2.97;;;4.80;99.90;;;;;;5071132;28;20059;-56
2023/03/29 01:31:02;;;;;;;7.63;3.40;;;4.80;99.90;;;;;;5071638;28;20047;-56
2023/03/29 01:33:36;;;;;;;6.13;3.03;;;4.80;99.90;;;;;;5073893;28;21053;-57
2023/03/29 01:36:26;;;;;;;8.73;2.85;;;4.90;99.90;;;;;;5075178;28;20385;-56
2023/03/29 01:38:56;;;;;;;9.20;3.15;;;4.70;99.90;;;;;;5075106;28;20056;-56
2023/03/29 01:41:33;;;;;;;5.32;2.70;;;4.90;99.90;;;;;;5074889;28;20494;-56
2023/03/29 01:44:05;;;;;;;10.07;3.53;;;4.80;99.90;;;;;;5074975;28;20032;-56
2023/03/29 01:46:41;;;;;;;7.25;2.92;;;4.80;99.90;;;;;;5076080;28;20053;-56
2023/03/29 01:49:22;;;;;;;8.95;2.97;;;4.90;99.90;;;;;;5075776;28;20040;-56
2023/03/29 01:51:52;;;;;;;5.60;3.00;;;4.70;99.90;;;;;;5075773;28;20051;-56
2023/03/29 01:54:40;;;;;;;6.25;3.15;;;4.80;99.90;;;;;;5074556;28;20047;-56
2023/03/29 01:57:09;;;;;;;9.10;3.40;;;4.20;99.90;;;;;;5075626;28;20392;-56
2023/03/29 01:59:39;;;;;;;6.18;2.70;;;4.80;99.90;;;;;;5075587;28;20048;-56
2023/03/29 02:02:10;;;;;;;6.68;3.47;;;4.80;99.90;;;;;;5075223;28;20156;-56
2023/03/29 02:04:46;;;;;;;7.47;3.17;;;5.00;99.90;;;;;;5075437;28;20311;-57
2023/03/29 02:07:14;;;;;;;6.28;3.15;;;4.90;99.90;;;;;;5074279;28;20124;-55
2023/03/29 02:09:42;;;;;;;8.32;3.22;;;4.70;99.90;;;;;;5073136;28;20039;-57
2023/03/29 02:12:09;;;;;;;11.25;4.15;;;4.70;99.90;;;;;;5073766;28;20036;-56
2023/03/29 02:14:35;;;;;;;6.88;3.20;;;;;;;;;;5074259;28;20051;-56
2023/03/29 02:17:19;;;;;;;7.60;2.92;;;4.90;99.90;;;;;;5074578;28;20085;-56
2023/03/29 02:19:49;;;;;;;11.55;4.22;;;4.80;99.90;;;;;;5073335;28;20513;-56
2023/03/29 02:22:18;;;;;;;10.35;4.05;;;4.80;99.90;;;;;;5071918;28;20047;-56
2023/03/29 02:24:47;;;;;;;8.98;3.90;;;4.80;99.90;;;;;;5074105;28;20454;-55
2023/03/29 02:27:13;;;;;;;8.57;4.25;;;;;;;;;;5074273;28;20044;-56
2023/03/29 02:29:39;;;;;;;8.25;3.58;;;;;;;;;;5073938;28;20039;-56
2023/03/29 02:32:14;;;;;;;5.15;3.13;;;4.70;99.90;;;;;;5073645;28;20068;-56
2023/03/29 02:35:00;;;;;;;5.88;3.60;;;4.80;99.90;;;;;;5073491;28;20044;-56
2023/03/29 02:37:30;;;;;;;7.95;4.07;;;4.80;99.90;;;;;;5073905;28;20121;-56
2023/03/29 02:39:57;;;;;;;4.90;3.20;;;4.90;99.90;;;;;;5073722;28;21075;-56
2023/03/29 02:42:25;;;;;;;8.10;4.00;;;4.90;99.90;;;;;;5073712;28;20400;-56
2023/03/29 02:44:55;;;;;;;10.82;4.00;;;4.80;99.90;;;;;;5072797;28;20475;-56
2023/03/29 02:47:27;;;;;;;10.93;4.22;;;4.80;99.90;;;;;;5074316;28;20085;-57
2023/03/29 02:49:53;;;;;;;7.78;3.92;;;5.00;99.90;;;;;;5073233;28;20829;-56
2023/03/29 02:52:24;;;;;;;9.32;4.35;;;5.00;99.90;;;;;;5074770;28;20036;-56
2023/03/29 02:54:53;;;;;;;7.80;4.43;;;4.90;99.90;;;;;;5074313;28;20416;-56
2023/03/29 02:57:25;;;;;;;8.20;4.32;;;4.90;99.90;;;;;;5073235;28;20040;-56
2023/03/29 02:59:52;;;;;;;8.30;4.18;;;5.00;99.90;;;;;;5073364;28;20044;-56
2023/03/29 03:02:18;;;;;;;10.45;5.40;;;;;;;;;;5074503;28;20040;-56
2023/03/29 03:04:45;;;;;;;9.85;4.88;;;;;;;;;;5073975;28;20135;-56
2023/03/29 03:07:11;;;;;;;9.15;4.53;;;;;;;;;;5073837;28;20055;-56
2023/03/29 03:09:38;;;;;;;7.63;4.25;;;;;;;;;;5073223;28;20047;-56
2023/03/29 03:12:05;;;;;;;7.80;4.57;;;5.00;99.90;;;;;;5073888;28;20044;-54
2023/03/29 03:14:31;;;;;;;8.70;5.03;;;;;;;;;;5074692;28;20051;-56
2023/03/29 03:16:57;;;;;;;8.70;4.90;;;;;;;;;;5074472;28;20515;-55
2023/03/29 03:19:24;;;;;;;11.68;5.38;;;;;;;;;;5075261;28;20036;-56
2023/03/29 03:21:50;;;;;;;8.93;4.15;;;;;;;;;;5074139;28;20071;-56
2023/03/29 03:24:16;;;;;;;7.82;5.25;;;;;;;;;;5073569;28;20044;-56
2023/03/29 03:26:45;;;;;;;10.30;4.93;;;;;;;;;;5072597;28;20847;-56
2023/03/29 03:29:12;;;;;;;9.02;4.97;;;4.80;99.90;;;;;;5073412;28;20048;-56
2023/03/29 03:31:40;;;;;;;8.95;5.07;;;;;;;;;;5072478;28;20471;-56
2023/03/29 03:34:09;;;;;;;8.55;4.85;;;4.90;99.90;;;;;;5072069;28;20036;-56
2023/03/29 03:36:36;;;;;;;8.45;4.18;;;;;;;;;;5070376;28;20052;-56
2023/03/29 03:39:04;;;;;;;11.18;5.30;;;;;;;;;;5072415;28;20416;-56
2023/03/29 03:41:31;;;;;;;9.32;4.75;;;;;;;;;;5071600;28;20059;-56
2023/03/29 03:43:57;;;;;;;10.35;5.20;;;;;;;;;;5072352;28;20048;-55
2023/03/29 03:46:24;;;;;;;8.25;4.68;;;;;;;;;;5074342;28;20036;-56
2023/03/29 03:48:50;;;;;;;8.25;4.47;;;;;;;;;;5071943;28;20114;-56
2023/03/29 03:51:16;;;;;;;9.00;4.47;;;;;;;;;;5071947;28;20035;-55
2023/03/29 03:53:42;;;;;;;8.75;4.63;;;5.10;99.90;;;;;;5072505;28;20243;-56
2023/03/29 03:56:08;;;;;;;8.07;4.47;;;;;;;;;;5071463;28;20059;-56
2023/03/29 03:58:35;;;;;;;9.98;4.47;;;5.00;99.90;;;;;;5072148;28;20051;-56
2023/03/29 04:01:01;;;;;;;10.70;4.80;;;;;;;;;;5071873;28;20404;-56
2023/03/29 04:03:27;;;;;;;7.05;4.50;;;;;;;;;;5071444;28;20096;-56
2023/03/29 04:05:54;;;;;;;10.05;4.70;;;;;;;;;;5071629;28;20043;-56
2023/03/29 04:08:21;;;;;;;7.93;4.53;;;;;;;;;;5072173;28;20612;-56
2023/03/29 04:10:55;;;;;;;11.27;5.47;;;5.10;99.90;;;;;;5071702;28;20086;-56
2023/03/29 04:13:21;;;;;;;12.18;5.10;;;;;;;;;;5071181;28;20036;-56
2023/03/29 04:15:55;;;;;;;9.30;4.70;;;;;;;;;;5072107;28;20097;-56
2023/03/29 04:18:21;;;;;;;11.73;4.63;;;;;;;;;;5072124;28;20509;-56
2023/03/29 04:20:48;;;;;;;9.63;4.20;;;;;;;;;;5072955;28;20058;-56
2023/03/29 04:23:14;;;;;;;8.48;4.15;;;5.00;99.90;;;;;;5073325;28;20040;-56
2023/03/29 04:25:40;;;;;;;8.50;5.10;;;5.30;99.90;;;;;;5073914;28;20051;-56
2023/03/29 04:28:06;;;;;;;7.25;4.60;;;;;;;;;;5072616;28;20068;-56
2023/03/29 04:30:32;;;;;;;8.30;4.20;;;;;;;;;;5072663;28;20090;-56
2023/03/29 04:32:59;;;;;;;7.95;4.80;;;;;;;;;;5072797;28;20137;-57
2023/03/29 04:35:26;;;;;;;9.88;4.63;;;;;;;;;;5072855;28;20786;-56
2023/03/29 04:37:53;;;;;;;7.57;5.07;;;;;;;;;;5073539;28;20509;-56
2023/03/29 04:40:20;;;;;;;8.05;4.72;;;;;;;;;;5073106;28;20331;-56
2023/03/29 04:42:46;;;;;;;8.88;4.53;;;5.40;99.90;;;;;;5071998;28;20102;-57
2023/03/29 04:45:18;;;;;;;8.38;4.72;;;5.30;99.90;;;;;;5072662;28;20194;-57
2023/03/29 04:47:44;;;;;;;10.85;4.97;;;;;;;;;;5072732;28;20036;-56
2023/03/29 04:50:11;;;;;;;8.90;5.03;;;5.20;99.90;;;;;;5072370;28;20097;-56
2023/03/29 04:52:37;;;;;;;9.55;5.60;;;;;;;;;;5073481;28;20722;-55
2023/03/29 04:55:05;;;;;;;10.52;5.55;;;5.20;99.90;;;;;;5072203;28;20104;-56
2023/03/29 04:57:31;;;;;;;8.02;5.10;;;;;;;;;;5071402;28;20096;-56
2023/03/29 04:59:57;;;;;;;9.25;4.40;;;;;;;;;;5071497;28;20488;-55
2023/03/29 05:02:23;;;;;;;10.40;4.80;;;;;;;;;;5072050;28;20062;-57
2023/03/29 05:04:50;;;;;;;10.85;5.30;;;;;;;;;;5071090;28;20036;-56
2023/03/29 05:07:17;;;;;;;12.73;5.00;;;;;;;;;;5072536;28;20427;-56
2023/03/29 05:09:44;;;;;;;11.80;4.90;;;;;;;;;;5075448;28;20047;-57
2023/03/29 05:12:10;;;;;;;8.15;4.68;;;;;;;;;;5075809;28;20044;-56
2023/03/29 05:14:36;;;;;;;11.95;5.85;;;;;;;;;;5076722;28;20126;-56
2023/03/29 05:17:03;;;;;;;10.85;5.50;;;;;;;;;;5076275;28;20101;-55
2023/03/29 05:19:29;;;;;;;10.48;5.55;;;;;;;;;;5074963;28;20447;-56
2023/03/29 05:21:56;;;;;;;12.27;5.57;;;;;;;;;;5076375;28;20048;-56
2023/03/29 05:24:22;;;;;;;13.20;6.15;;;;;;;;;;5074603;28;20807;-56
2023/03/29 05:26:50;;;;;;;9.52;5.40;;;;;;;;;;5074237;28;20040;-56
2023/03/29 05:29:17;;;;;;;9.00;5.63;;;;;;;;;;5072652;28;20400;-57
2023/03/29 05:31:43;;;;;;;10.23;5.45;;;;;;;;;;5074820;28;20565;-55
2023/03/29 05:34:09;;;;;;;11.82;6.40;;;;;;;;;;5074948;28;20036;-57
2023/03/29 05:36:37;;;;;;;11.60;5.05;;;;;;;;;;5074670;28;20043;-56
2023/03/29 05:39:05;;;;;;;10.05;5.88;;;;;;;;;;5074382;28;20535;-57
2023/03/29 05:41:32;;;;;;;9.82;5.88;;;;;;;;;;5074644;28;20079;-56
2023/03/29 05:43:58;;;;;;;12.00;7.15;;;;;;;;;;5074854;28;20442;-55
2023/03/29 05:46:24;;;;;;;11.00;5.90;;;;;;;;;;5074564;28;20036;-56
2023/03/29 05:48:50;;;;;;;10.68;5.75;;;;;;;;;;5074552;28;20058;-56
2023/03/29 05:51:17;;;;;;;11.65;6.35;;;;;;;;;;5076250;28;20593;-57
2023/03/29 05:53:44;;;;;;;13.20;7.55;;;;;;;;;;5076050;28;20438;-56
2023/03/29 05:56:10;;;;;;;11.68;6.05;;;;;;;;;;5074828;28;20175;-57
2023/03/29 05:58:38;;;;;;;13.60;7.55;;;;;;;;;;5075518;28;20089;-57
2023/03/29 06:01:09;;;;;;;14.68;7.82;;;5.50;99.90;;;;;;5075491;28;20043;-57
2023/03/29 06:03:35;;;;;;;13.60;6.60;;;;;;;;;;5075077;28;20654;-56
2023/03/29 06:06:02;;;;;;;12.93;8.18;;;5.60;99.90;;;;;;5076219;28;20058;-57
2023/03/29 06:08:29;;;;;;;13.02;7.72;;;5.40;99.90;;;;;;5074893;28;20044;-56
2023/03/29 06:11:02;;;;;;;13.77;7.78;;;5.50;99.90;;;;;;5074328;28;20040;-57
2023/03/29 06:13:29;;;;;;;14.52;7.88;;;5.60;99.90;;;;;;5073978;28;20074;-57
2023/03/29 06:15:55;;;;;;;12.50;8.55;;;;;;;;;;5074636;28;20093;-57
2023/03/29 06:18:22;;;;;;;14.50;8.35;;;;;;;;;;5072685;28;20356;-57
2023/03/29 06:20:52;;;;;;;15.40;9.20;;;5.60;99.90;;;;;;5075062;28;20058;-56
2023/03/29 06:23:18;;;;;;;15.75;8.70;;;5.50;99.90;;;;;;5073940;28;20048;-57
2023/03/29 06:25:45;;;;;;;15.13;9.10;;;;;;;;;;5073672;28;20047;-56
2023/03/29 06:28:11;;;;;;;14.45;8.15;;;;;;;;;;5072556;28;20044;-56
2023/03/29 06:30:38;;;;;;;14.38;9.63;;;;;;;;;;5074272;28;20055;-56
2023/03/29 06:33:05;;;;;;;18.48;10.20;;;;;;;;;;5073761;28;20497;-57
2023/03/29 06:35:33;;;;;;;19.85;9.30;;;5.60;99.90;;;;;;5073853;28;20076;-56
2023/03/29 06:37:59;;;;;;;18.23;9.90;;;5.80;99.90;;;;;;5073471;28;20055;-56
2023/03/29 06:40:26;;;;;;;13.13;8.48;;;;;;;;;;5073503;28;20396;-56
2023/03/29 06:42:56;;;;;;;17.60;9.65;;;5.70;99.90;;;;;;5074967;28;20083;-55
2023/03/29 06:45:31;;;;;;;15.20;8.77;;;5.80;99.90;;;;;;5074033;28;20507;-57
2023/03/29 06:47:57;;;;;;;16.08;9.43;;;;;;;;;;5074066;28;20564;-57
2023/03/29 06:50:24;;;;;;;15.65;8.85;;;;;;;;;;5074606;28;20052;-56
2023/03/29 06:52:51;;;;;;;19.73;9.93;;;;;;;;;;5074635;28;20074;-57
2023/03/29 06:55:17;;;;;;;15.02;9.25;;;5.90;99.90;;;;;;5073342;28;20043;-56
2023/03/29 06:57:44;;;;;;;16.48;9.40;;;;;;;;;;5073440;28;20409;-56
2023/03/29 07:00:29;;;;;;;17.30;9.63;;;5.90;99.90;;;;;;5073121;28;20218;-57
2023/03/29 07:02:57;;;;;;;15.70;9.43;;;5.90;99.90;;;;;;5073856;28;20051;-56
2023/03/29 07:05:26;;;;;;;16.20;8.82;;;5.90;99.90;;;;;;5072667;28;20090;-56
2023/03/29 07:07:55;;;;;;;16.48;8.93;;;6.10;99.90;;;;;;5041049;28;20075;-56
2023/03/29 07:10:31;;;;;;;16.92;10.35;;;6.20;99.90;;;;;;5072957;28;20048;-56
2023/03/29 07:12:59;;;;;;;14.90;8.10;;;6.10;99.90;;;;;;5073978;28;20126;-56
2023/03/29 07:15:26;;;;;;;17.45;8.32;;;6.10;99.90;;;;;;5073755;28;20070;-57
2023/03/29 07:17:52;;;;;;;14.52;8.73;;;6.30;99.90;;;;;;5073135;28;20036;-56
2023/03/29 07:20:18;;;;;;;15.00;8.85;;;6.20;99.90;;;;;;5074582;28;20400;-57
2023/03/29 07:22:46;;;;;;;14.02;8.45;;;6.20;99.90;;;;;;5089857;28;20043;-56
2023/03/29 07:25:12;;;;;;;16.08;8.18;;;6.30;99.90;;;;;;5073424;28;20040;-56
2023/03/29 07:27:41;;;;;;;10.90;7.80;;;6.30;99.90;;;;;;5073148;28;20485;-55
2023/03/29 07:30:09;;;;;;;13.48;8.27;;;6.30;99.90;;;;;;5072432;28;20408;-56
2023/03/29 07:32:39;;;;;;;10.93;7.40;;;6.50;99.90;;;;;;5074747;28;20156;-55
2023/03/29 07:35:07;;;;;;;17.42;8.10;;;6.40;99.90;;;;;;5073401;28;20118;-56
2023/03/29 07:37:36;;;;;;;10.85;8.23;;;6.50;99.90;;;;;;5073691;28;20043;-56
2023/03/29 07:40:07;;;;;;;15.85;8.50;;;6.10;99.90;;;;;;5073409;28;20040;-57
2023/03/29 07:42:35;;;;;;;11.88;7.10;;;;;;;;;;5074203;28;20035;-56
2023/03/29 07:45:03;;;;;;;12.95;8.40;;;6.50;99.90;;;;;;5071906;28;20056;-56
2023/03/29 07:47:29;;;;;;;11.43;8.02;;;;;;;;;;5070720;28;20040;-55
2023/03/29 07:49:55;;;;;;;14.15;8.50;;;;;;;;;;5072148;28;20125;-56
2023/03/29 07:52:21;;;;;;;14.35;8.55;;;6.70;99.90;;;;;;5073228;28;20593;-55
2023/03/29 07:54:47;;;;;;;14.30;7.55;;;6.70;99.90;;;;;;5071907;28;20090;-56
2023/03/29 07:57:13;;;;;;;11.30;7.10;;;6.80;99.90;;;;;;5071204;28;20432;-55
2023/03/29 07:59:38;;;;;;;16.65;7.90;;;6.90;99.90;;;;;;5071119;28;20139;-57
2023/03/29 08:02:05;;;;;;;15.95;7.32;;;6.80;99.90;;;;;;5072587;28;20036;-56
2023/03/29 08:04:31;;;;;;;14.38;8.60;;;7.00;99.90;;;;;;5071131;28;20040;-56
2023/03/29 08:06:57;;;;;;;13.18;9.00;;;7.00;99.90;;;;;;5072908;28;20404;-57
2023/03/29 08:09:22;;;;;;;11.70;7.72;;;7.00;99.90;;;;;;5071594;28;20385;-57
2023/03/29 08:11:48;;;;;;;15.13;9.00;;;7.00;99.90;;;;;;5072064;28;20036;-56
2023/03/29 08:14:14;;;;;;;10.45;7.10;;;6.90;99.90;;;;;;5071601;28;20050;-56
2023/03/29 08:16:40;;;;;;;10.23;6.68;;;7.20;99.90;;;;;;5072779;28;20470;-56
2023/03/29 08:19:06;;;;;;;10.65;7.20;;;7.10;99.90;;;;;;5072841;28;20081;-56
2023/03/29 08:21:32;;;;;;;12.88;7.03;;;7.30;99.90;;;;;;5072039;28;20062;-56
2023/03/29 08:23:58;;;;;;;11.63;7.10;;;;;;;;;;5071528;28;21031;-57
2023/03/29 08:26:24;;;;;;;15.40;6.75;;;7.50;99.90;;;;;;5050970;28;20035;-56
2023/03/29 08:28:49;;;;;;;12.05;6.47;;;7.70;99.90;;;;;;5071990;28;20060;-56
2023/03/29 08:31:15;;;;;;;13.25;7.07;;;7.80;99.90;;;;;;5071038;28;20052;-56
2023/03/29 08:33:43;;;;;;;14.45;8.23;;;7.90;99.90;;;;;;5070083;28;20083;-57
2023/03/29 08:36:09;;;;;;;12.70;6.78;;;7.70;99.90;;;;;;5072321;28;20028;-56
2023/03/29 08:38:35;;;;;;;13.80;7.45;;;7.90;99.90;;;;;;5072259;28;20040;-56
2023/03/29 08:41:07;;;;;;;10.98;6.57;;;7.70;99.90;;;;;;5072638;28;20147;-56
2023/03/29 08:43:50;;;;;;;11.88;7.25;;;7.80;99.90;;;;;;5072678;28;20048;-54
2023/03/29 08:46:39;;;;;;;15.52;6.82;;;7.90;99.90;;;;;;5073166;28;20071;-56
2023/03/29 08:49:09;;;;;;;12.95;7.10;;;7.90;99.90;;;;;;5073714;28;20036;-55
2023/03/29 08:51:45;;;;;;;9.52;6.00;;;7.70;99.90;;;;;;5073476;28;20211;-56
2023/03/29 08:54:20;;;;;;;10.35;7.07;;;8.10;99.90;;;;;;5072481;28;20052;-56
2023/03/29 08:56:48;;;;;;;10.82;6.75;;;8.10;99.90;;;;;;5073129;28;20554;-56
2023/03/29 08:59:21;;;;;;;11.77;6.95;;;8.10;99.90;;;;;;5072129;28;20136;-57
2023/03/29 09:01:49;;;;;;;10.95;6.88;;;8.30;99.90;;;;;;5071804;28;20048;-57
2023/03/29 09:04:23;;;;;;;11.77;6.88;;;8.20;99.90;;;;;;5070913;28;20044;-56
2023/03/29 09:06:49;;;;;;;13.38;6.82;;;8.30;99.90;;;;;;5072304;28;20105;-56
2023/03/29 09:09:17;;;;;;;11.57;7.22;;;8.40;99.90;;;;;;5071549;28;20530;-56
2023/03/29 09:12:11;;;;;;;13.30;7.28;;;8.30;99.90;;;;;;5071735;28;20134;-56
2023/03/29 09:15:05;;;;;;;11.73;7.28;;;8.50;99.90;;;;;;5072149;28;20097;-56
2023/03/29 09:17:52;;;;;;;13.82;6.88;;;8.60;99.90;;;;;;5072000;28;20040;-56
2023/03/29 09:20:33;;;;;;;13.50;6.75;;;8.70;99.90;;;;;;5071322;28;20068;-56
2023/03/29 09:22:59;;;;;;;16.35;7.18;;;8.90;99.90;;;;;;5071807;28;20075;-56
2023/03/29 09:25:38;;;;;;;19.13;8.88;;;9.10;99.90;;;;;;5072033;28;20796;-56
2023/03/29 09:28:13;;;;;;;14.60;7.35;;;9.30;99.90;;;;;;5069377;28;20059;-56
2023/03/29 09:30:41;;;;;;;12.40;7.43;;;9.40;99.90;;;;;;5070876;28;20131;-56
2023/03/29 09:33:10;;;;;;;16.55;8.10;;;9.50;99.90;;;;;;5070337;28;20520;-56
2023/03/29 09:36:03;;;;;;;18.08;10.65;;;9.50;99.90;;;;;;5071342;28;20047;-56
2023/03/29 09:38:30;;;;;;;14.43;7.25;;;9.40;99.90;;;;;;5071201;28;20036;-56
2023/03/29 09:41:07;;;;;;;12.38;6.75;;;9.30;99.90;;;;;;5071321;28;20736;-57
2023/03/29 09:43:36;;;;;;;15.70;8.23;;;9.20;99.90;;;;;;5072035;28;20059;-56
2023/03/29 09:46:25;;;;;;;17.30;8.45;;;9.50;99.90;;;;;;5071769;28;20040;-57
2023/03/29 09:48:53;;;;;;;15.70;7.72;;;10.50;99.90;;;;;;5072125;28;20036;-56
2023/03/29 09:51:23;;;;;;;20.92;10.60;;;9.50;99.90;;;;;;5072245;28;20527;-56
2023/03/29 09:53:49;;;;;;;15.98;9.43;;;9.50;99.90;;;;;;5073389;28;20105;-56
2023/03/29 09:56:15;;;;;;;17.63;9.48;;;9.40;99.90;;;;;;5076102;28;20036;-56
2023/03/29 09:58:43;;;;;;;14.93;8.82;;;9.50;99.90;;;;;;5076760;28;20032;-56
2023/03/29 10:01:12;;;;;;;17.13;8.32;;;9.70;99.90;;;;;;5075901;28;20544;-56
2023/03/29 10:03:39;;;;;;;22.13;12.43;;;9.80;99.90;;;;;;5076295;28;20161;-55
2023/03/29 10:06:08;;;;;;;14.10;8.35;;;9.80;99.90;;;;;;5075053;28;20224;-56
2023/03/29 10:08:34;;;;;;;14.70;9.25;;;9.90;99.90;;;;;;5076371;28;20028;-57
2023/03/29 10:11:06;;;;;;;15.43;9.23;;;9.90;99.90;;;;;;5075824;28;20067;-56
2023/03/29 10:13:34;;;;;;;16.98;8.90;;;9.90;99.90;;;;;;5075046;28;20477;-56
2023/03/29 10:16:15;;;;;;;25.08;12.88;;;9.70;99.90;;;;;;5076109;28;20151;-57
2023/03/29 10:18:42;;;;;;;18.00;11.00;;;10.00;99.90;;;;;;5075808;28;20035;-57
2023/03/29 10:21:11;;;;;;;22.75;10.93;;;10.00;99.90;;;;;;5075422;28;20028;-57
2023/03/29 10:23:37;;;;;;;15.25;9.90;;;10.10;99.90;;;;;;5074219;28;20047;-57
2023/03/29 10:26:06;;;;;;;24.98;14.35;;;10.30;99.90;;;;;;5073540;28;20040;-57
2023/03/29 10:28:35;;;;;;;21.15;10.65;;;10.00;99.90;;;;;;5073181;28;20051;-57
2023/03/29 10:31:02;;;;;;;20.75;13.57;;;10.10;99.90;;;;;;5073327;28;20071;-56
2023/03/29 10:33:33;;;;;;;20.95;12.20;;;10.30;99.90;;;;;;5073353;28;20063;-57
2023/03/29 10:36:03;;;;;;;27.10;15.63;;;10.10;99.90;;;;;;5073190;28;20404;-57
2023/03/29 10:38:29;;;;;;;20.92;11.15;;;10.30;99.90;;;;;;5073274;28;20405;-57
2023/03/29 10:41:11;;;;;;;21.02;12.65;;;10.40;99.90;;;;;;5074483;28;20051;-57
2023/03/29 10:43:41;;;;;;;18.42;10.90;;;10.40;99.90;;;;;;5073654;28;20032;-55
2023/03/29 10:46:11;;;;;;;17.85;11.80;;;10.90;99.90;;;;;;5073120;28;20036;-57
2023/03/29 10:48:38;;;;;;;16.80;10.75;;;10.80;99.90;;;;;;5073585;28;20083;-57
2023/03/29 10:51:06;;;;;;;25.15;12.45;;;11.20;99.90;;;;;;5073380;28;20071;-57
2023/03/29 10:53:36;;;;;;;25.67;13.88;;;11.20;99.90;;;;;;5073356;28;20653;-56
2023/03/29 10:56:11;;;;;;;22.33;12.73;;;11.10;99.90;;;;;;5072120;28;20379;-57
2023/03/29 10:58:39;;;;;;;16.58;11.23;;;11.60;99.90;;;;;;5072898;28;20078;-56
2023/03/29 11:01:16;;;;;;;20.58;12.43;;;11.70;99.90;;;;;;5073073;28;20044;-56
2023/03/29 11:03:49;;;;;;;21.38;10.65;;;11.70;99.90;;;;;;5073561;28;20075;-57
2023/03/29 11:06:32;;;;;;;34.42;15.90;;;11.80;99.90;;;;;;5074346;28;20039;-57
2023/03/29 11:09:01;;;;;;;25.10;13.82;;;11.90;99.90;;;;;;5073863;28;20052;-57
2023/03/29 11:11:43;;;;;;;16.15;11.05;;;12.20;99.90;;;;;;5073376;28;20605;-56
2023/03/29 11:14:34;;;;;;;15.77;10.82;;;12.10;99.90;;;;;;5073989;28;20052;-56
2023/03/29 11:17:15;;;;;;;18.08;10.32;;;12.10;99.90;;;;;;5073554;28;20335;-57
2023/03/29 11:19:53;;;;;;;19.63;12.02;;;12.10;99.90;;;;;;5071837;28;20040;-56
2023/03/29 11:22:32;;;;;;;21.52;13.45;;;11.80;99.90;;;;;;5074732;28;20032;-56
2023/03/29 11:25:01;;;;;;;20.58;12.95;;;11.80;99.90;;;;;;5073337;28;20499;-56
2023/03/29 11:27:44;;;;;;;19.80;12.32;;;11.70;99.90;;;;;;5073536;28;20048;-56
2023/03/29 11:30:23;;;;;;;16.60;10.73;;;11.80;99.90;;;;;;5073281;28;20050;-55
2023/03/29 11:32:58;;;;;;;22.88;12.38;;;11.90;99.90;;;;;;5071724;28;20052;-56
2023/03/29 11:35:55;;;;;;;18.52;11.25;;;11.70;99.90;;;;;;5072014;28;20464;-56
2023/03/29 11:38:59;;;;;;;17.67;11.68;;;11.80;99.90;;;;;;5073095;28;20124;-56
2023/03/29 11:41:29;;;;;;;18.50;11.48;;;11.70;99.90;;;;;;5072708;28;20126;-55
2023/03/29 11:44:01;;;;;;;18.23;10.90;;;11.80;99.90;;;;;;5057543;28;20043;-57
2023/03/29 11:46:32;;;;;;;18.67;11.52;;;12.10;99.90;;;;;;5073135;28;20036;-55
2023/03/29 11:49:12;;;;;;;17.20;12.18;;;11.90;99.90;;;;;;5073207;28;21677;-56
2023/03/29 11:51:47;;;;;;;22.23;11.95;;;12.10;99.90;;;;;;5072975;28;20089;-56
2023/03/29 11:54:19;;;;;;;22.00;12.32;;;12.20;99.90;;;;;;5072230;28;20051;-57
2023/03/29 11:56:58;;;;;;;19.83;12.27;;;12.30;99.90;;;;;;5072970;28;20032;-57
2023/03/29 11:59:35;;;;;;;16.42;11.63;;;12.60;99.90;;;;;;5072335;28;20040;-57
2023/03/29 12:02:30;;;;;;;19.77;11.68;;;12.60;99.90;;;;;;5072565;28;20122;-56
2023/03/29 12:05:00;;;;;;;18.08;12.18;;;12.60;99.90;;;;;;5072115;28;20048;-56
2023/03/29 12:07:38;;;;;;;18.25;10.80;;;12.70;99.90;;;;;;5073361;28;20093;-57
2023/03/29 12:10:22;;;;;;;22.70;12.93;;;12.70;99.90;;;;;;5072399;28;20051;-56
2023/03/29 12:13:05;;;;;;;22.20;12.13;;;12.80;99.90;;;;;;5073012;28;20611;-56
2023/03/29 12:15:52;;;;;;;18.15;11.32;;;13.50;99.90;;;;;;5071793;28;20982;-56
2023/03/29 12:18:40;;;;;;;17.92;10.68;;;13.10;99.90;;;;;;5071156;28;20744;-56
2023/03/29 12:21:13;;;;;;;24.77;12.13;;;13.20;99.90;;;;;;5072080;28;20040;-56
2023/03/29 12:23:41;;;;;;;19.15;12.35;;;13.10;99.90;;;;;;5071789;28;20108;-56
2023/03/29 12:26:15;;;;;;;18.08;11.20;;;13.20;99.90;;;;;;5072174;28;20655;-57
2023/03/29 12:29:07;;;;;;;15.05;11.20;;;13.10;99.90;;;;;;5071679;28;20512;-55
2023/03/29 12:31:38;;;;;;;15.02;10.65;;;13.10;99.90;;;;;;5072303;28;20543;-57
2023/03/29 12:34:19;;;;;;;14.77;11.15;;;13.30;99.90;;;;;;5073357;28;20044;-56
2023/03/29 12:37:23;;;;;;;17.05;11.15;;;13.00;99.90;;;;;;5071627;28;20044;-57
2023/03/29 12:39:50;;;;;;;15.93;10.70;;;13.10;99.90;;;;;;5072769;28;20083;-56
2023/03/29 12:42:21;;;;;;;13.82;9.88;;;13.20;99.90;;;;;;5074304;28;20176;-56
2023/03/29 12:44:57;;;;;;;15.73;11.05;;;13.00;99.90;;;;;;5073733;28;20135;-56
2023/03/29 12:47:26;;;;;;;16.08;11.07;;;13.00;99.90;;;;;;5072980;28;20045;-56
2023/03/29 12:49:57;;;;;;;17.88;11.73;;;13.20;99.90;;;;;;5073502;28;20401;-57
2023/03/29 12:52:26;;;;;;;14.07;10.73;;;13.00;99.90;;;;;;5073577;28;20040;-57
2023/03/29 12:54:54;;;;;;;15.50;10.48;;;13.00;99.90;;;;;;5073725;28;20040;-56
2023/03/29 12:57:26;;;;;;;16.27;9.63;;;13.10;99.90;;;;;;5073852;28;20032;-57
2023/03/29 12:59:52;;;;;;;14.93;10.00;;;13.00;99.90;;;;;;5073702;28;20240;-56
2023/03/29 13:02:18;;;;;;;13.70;10.38;;;12.90;99.90;;;;;;5072746;28;20397;-56
2023/03/29 13:04:54;;;;;;;15.23;10.23;;;12.70;99.90;;;;;;5072031;28;20051;-56
2023/03/29 13:07:26;;;;;;;13.55;10.15;;;13.00;99.90;;;;;;5072023;28;20052;-56
2023/03/29 13:10:01;;;;;;;13.63;9.55;;;13.00;99.90;;;;;;5072262;28;20040;-56
2023/03/29 13:12:39;;;;;;;15.98;10.93;;;12.90;99.90;;;;;;5072535;28;20042;-56
2023/03/29 13:15:20;;;;;;;14.25;11.00;;;12.90;99.90;;;;;;5071421;28;20064;-57
2023/03/29 13:18:01;;;;;;;15.52;10.65;;;12.80;99.90;;;;;;5072572;28;20047;-55
2023/03/29 13:20:30;;;;;;;14.30;10.15;;;12.90;99.90;;;;;;5071786;28;20139;-57
2023/03/29 13:23:01;;;;;;;13.68;9.50;;;12.80;99.90;;;;;;5072020;28;20044;-56
2023/03/29 13:26:02;;;;;;;16.50;11.45;;;12.70;99.90;;;;;;5070780;28;20155;-57
2023/03/29 13:28:40;;;;;;;15.20;11.32;;;12.90;99.90;;;;;;5049240;28;20051;-57
2023/03/29 13:31:33;;;;;;;16.30;11.13;;;12.80;99.90;;;;;;5074644;28;20060;-56
2023/03/29 13:34:02;;;;;;;17.05;10.68;;;13.00;99.90;;;;;;5074847;28;20058;-57